Time;durP1;ratioP1;P1;durP2;ratioP2;P2;SDS_P1;SDS_P2;PMS_P1;PMS_P2;Temp;Humidity;BMP_temperature;BMP_pressure;BME280_temperature;BME280_humidity;BME280_pressure;Samples;Min_cycle;Max_cycle;Signal;HPM_P1;HPM_P2
2022/12/12 00:00:38;;;;;;;41.85;17.30;;;;;;;;;;5070610;28;20036;-57
2022/12/12 00:03:04;;;;;;;41.67;18.00;;;;;;;;;;5065685;28;20032;-60
2022/12/12 00:05:29;;;;;;;37.13;17.17;;;;;;;;;;5071878;28;20093;-55
2022/12/12 00:07:55;;;;;;;38.08;16.73;;;;;;;;;;5069486;28;20384;-57
2022/12/12 00:10:20;;;;;;;37.38;16.58;;;;;;;;;;5069182;28;20032;-57
2022/12/12 00:12:46;;;;;;;35.08;16.92;;;;;;;;;;5054654;28;20034;-55
2022/12/12 00:15:12;;;;;;;39.90;17.98;;;;;;;;;;5071013;28;20033;-55
2022/12/12 00:17:38;;;;;;;41.90;19.15;;;;;;;;;;5072547;28;20477;-56
2022/12/12 00:20:04;;;;;;;39.47;19.20;;;;;;;;;;5070295;28;20055;-54
2022/12/12 00:22:29;;;;;;;47.22;20.23;;;;;;;;;;5072624;28;20082;-56
2022/12/12 00:24:55;;;;;;;48.92;21.13;;;;;;;;;;5070513;28;20028;-55
2022/12/12 00:27:20;;;;;;;54.25;21.63;;;;;;;;;;5070232;28;20032;-54
2022/12/12 00:29:53;;;;;;;59.63;23.15;;;;;;;;;;5069297;28;20162;-56
2022/12/12 00:32:19;;;;;;;55.20;22.33;;;;;;;;;;5071544;28;20037;-57
2022/12/12 00:34:45;;;;;;;60.90;22.60;;;;;;;;;;5069855;28;20057;-56
2022/12/12 00:37:10;;;;;;;56.50;22.63;;;;;;;;;;5071052;28;20465;-56
2022/12/12 00:39:36;;;;;;;57.97;21.90;;;;;;;;;;5049844;28;20032;-57
2022/12/12 00:42:01;;;;;;;53.15;21.30;;;;;;;;;;5071952;28;20089;-54
2022/12/12 00:44:26;;;;;;;54.22;21.48;;;;;;;;;;5069519;28;20024;-59
2022/12/12 00:46:52;;;;;;;55.03;21.98;;;;;;;;;;5070558;28;20052;-54
2022/12/12 00:49:17;;;;;;;47.15;21.67;;;;;;;;;;5069685;28;20078;-54
2022/12/12 00:51:43;;;;;;;54.15;21.52;;;;;;;;;;5053040;28;20397;-54
2022/12/12 00:54:09;;;;;;;49.90;21.48;;;;;;;;;;5068958;28;20457;-56
2022/12/12 00:56:35;;;;;;;52.50;21.20;;;;;;;;;;5067810;28;20048;-53
2022/12/12 00:59:02;;;;;;;59.53;22.30;;;;;;;;;;5069661;28;20504;-55
2022/12/12 01:01:30;;;;;;;50.78;20.65;;;;;;;;;;5067732;28;20400;-59
2022/12/12 01:03:56;;;;;;;52.55;21.25;;;;;;;;;;5069380;28;20077;-56
2022/12/12 01:06:22;;;;;;;56.10;21.60;;;;;;;;;;5068534;28;20037;-58
2022/12/12 01:08:48;;;;;;;48.42;20.65;;;;;;;;;;5050922;28;20066;-53
2022/12/12 01:11:14;;;;;;;50.58;20.48;;;;;;;;;;5069449;28;20107;-54
2022/12/12 01:13:41;;;;;;;47.40;21.20;;;;;;;;;;5070840;28;20426;-54
2022/12/12 01:16:07;;;;;;;51.33;19.80;;;;;;;;;;5070617;28;20418;-53
2022/12/12 01:18:33;;;;;;;50.92;21.13;;;;;;;;;;5049843;28;20028;-54
2022/12/12 01:20:58;;;;;;;43.55;19.90;;;;;;;;;;5066009;28;20043;-53
2022/12/12 01:23:24;;;;;;;48.95;20.45;;;;;;;;;;5069840;28;20021;-56
2022/12/12 01:25:57;;;;;;;46.15;20.52;;;;;;;;;;5069759;28;20117;-52
2022/12/12 01:28:23;;;;;;;47.50;19.42;;;;;;;;;;5069669;28;20036;-59
2022/12/12 01:30:48;;;;;;;47.47;19.95;;;;;;;;;;5066679;28;20021;-54
2022/12/12 01:33:13;;;;;;;44.45;19.58;;;;;;;;;;5052123;28;20036;-56
2022/12/12 01:35:39;;;;;;;49.50;20.33;;;;;;;;;;5068169;28;20086;-58
2022/12/12 01:38:04;;;;;;;51.08;19.85;;;;;;;;;;5069990;28;20031;-56
2022/12/12 01:40:30;;;;;;;50.42;21.63;;;;;;;;;;5069508;28;20032;-60
2022/12/12 01:42:57;;;;;;;50.80;20.48;;;;;;;;;;5069012;28;20028;-58
2022/12/12 01:46:07;;;;;;;47.50;21.15;;;;;;;;;;5066522;28;20028;-59
2022/12/12 01:48:34;;;;;;;48.58;20.40;;;;;;;;;;5070026;28;20068;-60
2022/12/12 01:51:03;;;;;;;48.35;20.63;;;;;;;;;;5071280;28;20389;-54
2022/12/12 01:53:30;;;;;;;45.97;19.80;;;;;;;;;;5070475;28;20032;-54
2022/12/12 01:55:57;;;;;;;46.22;19.73;;;;;;;;;;5070216;28;20041;-59
2022/12/12 01:58:24;;;;;;;48.55;19.67;;;;;;;;;;5071169;28;20032;-54
2022/12/12 02:00:49;;;;;;;43.80;19.23;;;;;;;;;;5068425;28;20024;-53
2022/12/12 02:03:14;;;;;;;46.60;19.45;;;;;;;;;;5067669;28;20028;-54
2022/12/12 02:05:49;;;;;;;44.50;18.58;;;;;;;;;;5067603;28;20146;-57
2022/12/12 02:08:18;;;;;;;49.10;19.90;;;;;;;;;;5066399;28;20032;-53
2022/12/12 02:10:44;;;;;;;43.85;19.33;;;;;;;;;;5046391;28;20480;-53
2022/12/12 02:13:15;;;;;;;46.28;19.08;;;;;;;;;;5065907;28;20029;-59
2022/12/12 02:15:57;;;;;;;48.75;19.60;;;;;;;;;;5068664;28;20028;-56
2022/12/12 02:18:46;;;;;;;49.88;19.90;;;;;;;;;;5069026;28;20037;-54
2022/12/12 02:21:22;;;;;;;46.15;19.83;;;;;;;;;;5068380;28;20021;-56
2022/12/12 02:24:04;;;;;;;47.25;20.10;;;;;;;;;;5067184;28;20063;-56
2022/12/12 02:27:15;;;;;;;46.70;18.80;;;;;;;;;;5059594;28;20107;-54
2022/12/12 02:30:01;;;;;;;45.15;19.33;;;;;;;;;;5066809;28;20041;-57
2022/12/12 02:32:48;;;;;;;45.17;18.73;;;;;;;;;;5067441;28;20067;-60
2022/12/12 02:35:32;;;;;;;47.55;19.38;;;;;;;;;;5064989;28;20059;-57
2022/12/12 02:38:08;;;;;;;49.33;18.35;;;;;;;;;;5068385;28;20039;-55
2022/12/12 02:40:43;;;;;;;42.53;19.08;;;;;;;;;;5048054;28;20516;-60
2022/12/12 02:43:45;;;;;;;42.00;18.77;;;;;;;;;;5069720;28;20052;-58
2022/12/12 02:46:24;;;;;;;46.75;18.50;;;;;;;;;;5038765;28;20064;-58
2022/12/12 02:49:07;;;;;;;48.08;19.67;;;;;;;;;;5068013;28;20033;-58
2022/12/12 02:51:34;;;;;;;48.20;20.05;;;;;;;;;;5069710;28;20540;-61
2022/12/12 02:54:03;;;;;;;47.72;20.00;;;;;;;;;;5050118;28;20089;-58
2022/12/12 02:56:43;;;;;;;55.58;21.73;;;;;;;;;;5076265;28;20041;-62
2022/12/12 02:59:13;;;;;;;46.13;20.03;;;;;;;;;;5067548;28;20048;-55
2022/12/12 03:02:07;;;;;;;48.00;19.95;;;;;;;;;;5065651;28;20036;-57
2022/12/12 03:07:53;;;;;;;42.60;19.77;;;;;;;;;;5066064;28;20052;-54
2022/12/12 03:10:18;;;;;;;47.03;20.13;;;;;;;;;;5067667;28;20025;-53
2022/12/12 03:12:59;;;;;;;53.53;21.40;;;;;;;;;;5065221;28;20146;-54
2022/12/12 03:15:43;;;;;;;44.20;20.90;;;;;;;;;;5066987;28;20024;-55
2022/12/12 03:18:56;;;;;;;49.50;20.48;;;;;;;;;;5068564;28;20039;-54
2022/12/12 03:21:31;;;;;;;50.10;20.33;;;;;;;;;;5059070;28;20431;-57
2022/12/12 03:24:02;;;;;;;55.67;21.33;;;;;;;;;;5067280;28;20117;-52
2022/12/12 03:26:35;;;;;;;54.15;20.60;;;;;;;;;;5062835;28;20460;-52
2022/12/12 03:29:10;;;;;;;47.35;19.83;;;;;;;;;;5067712;28;20098;-56
2022/12/12 03:31:38;;;;;;;47.30;20.67;;;;;;;;;;5068701;28;20079;-59
2022/12/12 03:34:22;;;;;;;49.53;21.67;;;;;;;;;;5069102;28;20099;-53
2022/12/12 03:36:53;;;;;;;49.05;21.27;;;;;;;;;;5052911;28;20078;-54
2022/12/12 03:39:43;;;;;;;46.78;20.52;;;;;;;;;;5071582;28;20484;-57
2022/12/12 03:42:21;;;;;;;50.73;20.50;;;;;;;;;;5057772;28;20040;-57
2022/12/12 03:44:51;;;;;;;51.92;20.88;;;;;;;;;;5070112;28;20025;-56
2022/12/12 03:47:21;;;;;;;50.85;20.70;;;;;;;;;;5072857;28;20468;-54
2022/12/12 03:49:57;;;;;;;42.87;19.57;;;;;;;;;;5070395;28;20025;-54
2022/12/12 03:52:29;;;;;;;47.17;20.42;;;;;;;;;;5072845;28;20810;-56
2022/12/12 03:54:57;;;;;;;48.10;20.63;;;;;;;;;;5071426;28;20056;-55
2022/12/12 03:57:35;;;;;;;47.55;21.05;;;;;;;;;;5072764;28;20051;-55
2022/12/12 04:00:08;;;;;;;48.63;20.75;;;;;;;;;;5070164;28;20199;-59
2022/12/12 04:03:08;;;;;;;45.85;20.08;;;;;;;;;;5057173;28;20039;-56
2022/12/12 04:06:43;;;;;;;49.05;20.67;;;;;;;;;;5061340;28;20048;-55
2022/12/12 04:14:42;;;;;;;51.72;20.67;;;;;;;;;;5060844;28;20047;-57
2022/12/12 04:17:13;;;;;;;49.85;20.42;;;;;;;;;;5054245;28;20123;-54
2022/12/12 04:23:14;;;;;;;43.00;18.65;;;;;;;;;;5070330;28;20163;-55
2022/12/12 04:29:08;;;;;;;45.15;19.42;;;;;;;;;;5065641;28;20032;-56
2022/12/12 04:31:39;;;;;;;44.90;19.88;;;;;;;;;;5071715;28;20044;-56
2022/12/12 04:34:13;;;;;;;46.13;19.63;;;;;;;;;;5069775;28;20032;-56
2022/12/12 04:36:41;;;;;;;45.97;20.10;;;;;;;;;;5069248;28;20591;-58
2022/12/12 04:39:09;;;;;;;47.10;20.52;;;;;;;;;;5070853;28;20546;-54
2022/12/12 04:41:36;;;;;;;47.20;19.70;;;;;;;;;;5071233;28;20044;-56
2022/12/12 04:44:05;;;;;;;41.35;19.55;;;;;;;;;;5069473;28;20036;-56
2022/12/12 04:46:32;;;;;;;44.42;20.52;;;;;;;;;;5070601;28;20033;-54
2022/12/12 04:49:04;;;;;;;43.35;19.98;;;;;;;;;;5050744;28;20540;-57
2022/12/12 04:51:41;;;;;;;43.05;20.25;;;;;;;;;;5071656;28;20071;-58
2022/12/12 04:54:18;;;;;;;42.38;20.30;;;;;;;;;;5070638;28;20148;-56
2022/12/12 04:56:48;;;;;;;39.97;18.80;;;;;;;;;;5069069;28;20044;-58
2022/12/12 04:59:13;;;;;;;40.85;19.17;;;;;;;;;;5070809;28;20107;-56
2022/12/12 05:02:08;;;;;;;40.88;20.20;;;;;;;;;;5070751;28;20064;-59
2022/12/12 05:04:46;;;;;;;42.92;19.52;;;;;;;;;;5066181;28;20028;-57
2022/12/12 05:07:51;;;;;;;40.40;19.65;;;;;;;;;;5067590;28;20041;-55
2022/12/12 05:10:17;;;;;;;47.67;20.27;;;;;;;;;;4990848;28;20041;-57
2022/12/12 05:12:46;;;;;;;42.70;19.55;;;;;;;;;;5069381;28;20027;-60
2022/12/12 05:15:13;;;;;;;39.40;18.75;;;;;;;;;;5051017;28;20054;-57
2022/12/12 05:17:43;;;;;;;45.75;19.20;;;;;;;;;;5068045;28;20086;-56
2022/12/12 05:20:09;;;;;;;42.45;18.67;;;;;;;;;;5070941;28;20103;-56
2022/12/12 05:22:35;;;;;;;42.47;19.35;;;;;;;;;;5068120;28;20032;-56
2022/12/12 05:25:00;;;;;;;42.67;19.90;;;;;;;;;;5069246;28;20437;-57
2022/12/12 05:27:26;;;;;;;43.25;19.90;;;;;;;;;;5065294;28;20086;-56
2022/12/12 05:29:51;;;;;;;45.13;19.85;;;;;;;;;;5060870;28;20032;-58
2022/12/12 05:32:17;;;;;;;41.88;19.10;;;;;;;;;;5068694;28;20078;-55
2022/12/12 05:34:42;;;;;;;43.92;20.80;;;;;;;;;;5067697;28;20384;-59
2022/12/12 05:37:07;;;;;;;48.33;21.00;;;;;;;;;;5068106;28;20440;-55
2022/12/12 05:39:33;;;;;;;47.50;20.95;;;;;;;;;;5051808;28;20051;-59
2022/12/12 05:41:58;;;;;;;41.95;20.45;;;;;;;;;;5069549;28;20040;-55
2022/12/12 05:44:24;;;;;;;43.67;20.10;;;;;;;;;;5069523;28;20028;-56
2022/12/12 05:46:49;;;;;;;43.85;20.83;;;;;;;;;;5068208;28;20047;-57
2022/12/12 05:49:14;;;;;;;40.83;18.92;;;;;;;;;;5070444;28;20037;-57
2022/12/12 05:51:40;;;;;;;43.10;19.90;;;;;;;;;;5071709;28;20469;-56
2022/12/12 05:54:06;;;;;;;45.50;19.95;;;;;;;;;;5069060;28;20039;-54
2022/12/12 05:56:31;;;;;;;44.75;20.08;;;;;;;;;;5071374;28;20055;-53
2022/12/12 05:58:56;;;;;;;44.97;20.52;;;;;;;;;;5066776;28;20029;-57
2022/12/12 06:01:22;;;;;;;45.67;19.73;;;;;;;;;;5063615;28;20359;-57
2022/12/12 06:03:47;;;;;;;42.55;20.02;;;;;;;;;;5059891;28;20024;-60
2022/12/12 06:06:13;;;;;;;43.95;19.85;;;;;;;;;;5071020;28;20025;-59
2022/12/12 06:08:38;;;;;;;41.50;19.35;;;;;;;;;;5070423;28;20396;-56
2022/12/12 06:11:05;;;;;;;43.15;20.48;;;;;;;;;;5051515;28;20032;-57
2022/12/12 06:13:30;;;;;;;42.67;19.70;;;;;;;;;;5070279;28;20036;-55
2022/12/12 06:15:56;;;;;;;38.10;19.05;;;;;;;;;;5070656;28;20039;-57
2022/12/12 06:18:21;;;;;;;40.70;20.60;;;;;;;;;;5064918;28;20028;-57
2022/12/12 06:20:47;;;;;;;42.35;20.05;;;;;;;;;;5071122;28;20111;-58
2022/12/12 06:23:12;;;;;;;44.83;20.73;;;;;;;;;;5069486;28;20119;-56
2022/12/12 06:25:37;;;;;;;40.25;19.05;;;;;;;;;;5064235;28;20389;-59
2022/12/12 06:28:03;;;;;;;42.33;21.15;;;;;;;;;;5062364;28;20560;-60
2022/12/12 06:30:28;;;;;;;44.13;20.52;;;;;;;;;;5070500;28;20032;-59
2022/12/12 06:32:54;;;;;;;51.28;23.42;;;;;;;;;;5070696;28;20056;-58
2022/12/12 06:35:19;;;;;;;48.95;23.80;;;;;;;;;;5052874;28;20051;-59
2022/12/12 06:37:47;;;;;;;54.67;27.50;;;;;;;;;;5070224;28;20028;-59
2022/12/12 06:40:12;;;;;;;50.90;24.05;;;;;;;;;;5070383;28;20032;-59
2022/12/12 06:42:38;;;;;;;50.75;23.95;;;;;;;;;;5066039;28;20437;-57
2022/12/12 06:45:04;;;;;;;57.10;25.33;;;;;;;;;;5067551;28;20508;-60
2022/12/12 06:47:29;;;;;;;53.20;26.65;;;;;;;;;;5069797;28;20033;-58
2022/12/12 06:49:54;;;;;;;53.47;25.50;;;;;;;;;;5068958;28;20410;-56
2022/12/12 06:52:20;;;;;;;46.88;21.85;;;;;;;;;;5070484;28;20020;-59
2022/12/12 06:54:46;;;;;;;47.78;22.00;;;;;;;;;;5059913;28;20370;-59
2022/12/12 06:57:11;;;;;;;43.22;21.17;;;;;;;;;;5068607;28;20376;-56
2022/12/12 06:59:37;;;;;;;43.03;20.55;;;;;;;;;;5069783;28;20186;-57
2022/12/12 07:02:02;;;;;;;42.70;19.05;;;;;;;;;;5048677;28;20029;-58
2022/12/12 07:04:28;;;;;;;40.30;19.08;;;;;;;;;;5070527;28;20027;-59
2022/12/12 07:06:53;;;;;;;42.92;20.17;;;;;;;;;;5072678;28;20033;-63
2022/12/12 07:09:19;;;;;;;39.45;19.52;;;;;;;;;;5056168;28;20464;-60
2022/12/12 07:11:45;;;;;;;41.88;20.42;;;;;;;;;;5073197;28;20039;-58
2022/12/12 07:14:10;;;;;;;39.55;19.83;;;;;;;;;;5037959;28;20288;-57
2022/12/12 07:16:36;;;;;;;39.65;19.45;;;;;;;;;;5056186;28;20036;-58
2022/12/12 07:19:02;;;;;;;45.83;20.08;;;;;;;;;;5073170;28;20052;-59
2022/12/12 07:21:27;;;;;;;43.03;19.27;;;;;;;;;;5074779;28;20440;-60
2022/12/12 07:23:52;;;;;;;41.65;20.63;;;;;;;;;;5069917;28;20032;-57
2022/12/12 07:26:20;;;;;;;43.63;19.90;;;;;;;;;;5074144;28;20035;-60
2022/12/12 07:28:46;;;;;;;45.90;20.80;;;;;;;;;;5071512;28;20024;-58
2022/12/12 07:31:14;;;;;;;45.78;21.13;;;;;;;;;;5071846;28;20562;-57
2022/12/12 07:33:40;;;;;;;51.50;20.85;;;;;;;;;;5072925;28;20481;-59
2022/12/12 07:36:06;;;;;;;46.88;20.73;;;;;;;;;;5071283;28;20031;-59
2022/12/12 07:38:32;;;;;;;45.92;20.08;;;;;;;;;;5070842;28;20126;-60
2022/12/12 07:41:09;;;;;;;49.53;20.45;;;;;;;;;;5052438;28;20389;-58
2022/12/12 07:43:37;;;;;;;48.20;19.85;;;;;;;;;;5073995;28;20120;-58
2022/12/12 07:46:08;;;;;;;45.05;19.75;;;;;;;;;;5071890;28;20141;-58
2022/12/12 07:48:34;;;;;;;46.25;19.25;;;;;;;;;;5056268;28;20059;-58
2022/12/12 07:51:00;;;;;;;43.90;18.98;;;;;;;;;;5070438;28;20037;-58
2022/12/12 07:53:26;;;;;;;50.15;19.33;;;;;;;;;;5073275;28;20047;-59
2022/12/12 07:55:52;;;;;;;49.60;20.35;;;;;;;;;;5054961;28;20052;-61
2022/12/12 07:58:17;;;;;;;46.22;19.27;;;;;;;;;;5073080;28;20028;-58
2022/12/12 08:00:43;;;;;;;43.55;19.17;;;;;;;;;;5071494;28;20037;-59
2022/12/12 08:03:08;;;;;;;45.92;18.17;;;;;;;;;;5072024;28;20138;-57
2022/12/12 08:05:33;;;;;;;44.47;19.50;;;;;;;;;;5069199;28;20035;-59
2022/12/12 08:07:59;;;;;;;39.85;17.63;;;;;;;;;;5070224;28;20066;-57
2022/12/12 08:10:24;;;;;;;42.55;18.17;;;;;;;;;;5072852;28;20124;-60
2022/12/12 08:12:50;;;;;;;40.88;19.00;;;;;;;;;;5072005;28;20039;-60
2022/12/12 08:15:16;;;;;;;39.38;18.20;;;;;;;;;;5072832;28;20031;-60
2022/12/12 08:17:43;;;;;;;38.08;17.88;;;;;;;;;;5071443;28;20040;-59
2022/12/12 08:20:09;;;;;;;37.25;17.85;;;;;;;;;;5072722;28;20036;-54
2022/12/12 08:22:34;;;;;;;41.20;18.63;;;;;;;;;;5072115;28;20039;-55
2022/12/12 08:25:00;;;;;;;39.55;18.15;;;;;;;;;;5054630;28;20519;-57
2022/12/12 08:27:26;;;;;;;40.97;18.50;;;;;;;;;;5070276;28;20436;-60
2022/12/12 08:29:52;;;;;;;41.50;18.40;;;;;;;;;;5071154;28;20037;-58
2022/12/12 08:32:18;;;;;;;35.60;16.38;;;;;;;;;;5070055;28;20032;-60
2022/12/12 08:34:43;;;;;;;44.65;19.67;;;;;;;;;;5070259;28;20194;-58
2022/12/12 08:37:08;;;;;;;41.60;18.10;;;;;;;;;;5070543;28;20497;-59
2022/12/12 08:39:34;;;;;;;44.60;20.52;;;;;;;;;;5067658;28;20091;-60
2022/12/12 08:42:00;;;;;;;45.80;20.67;;;;;;;;;;5071642;28;20477;-57
2022/12/12 08:44:25;;;;;;;42.53;18.52;;;;;;;;;;5071540;28;20043;-58
2022/12/12 08:46:51;;;;;;;41.78;18.42;;;;;;;;;;5072651;28;20036;-60
2022/12/12 08:49:16;;;;;;;42.58;18.23;;;;;;;;;;5071683;28;20060;-60
2022/12/12 08:51:42;;;;;;;44.65;19.45;;;;;;;;;;5072759;28;20029;-60
2022/12/12 08:54:10;;;;;;;46.10;19.67;;;;;;;;;;5050177;28;20111;-59
2022/12/12 08:56:36;;;;;;;48.72;19.95;;;;;;;;;;5072027;28;20048;-60
2022/12/12 08:59:01;;;;;;;45.08;18.30;;;;;;;;;;5070141;28;20431;-57
2022/12/12 09:01:27;;;;;;;40.80;19.50;;;;;;;;;;5053273;28;20115;-60
2022/12/12 09:03:55;;;;;;;44.58;18.63;;;;;;;;;;5071517;28;20042;-61
2022/12/12 09:06:21;;;;;;;44.17;19.25;;;;;;;;;;5070456;28;20044;-60
2022/12/12 09:08:47;;;;;;;43.15;18.92;;;;;;;;;;5072479;28;20040;-59
2022/12/12 09:11:14;;;;;;;43.25;18.10;;;;;;;;;;5035852;28;20183;-59
2022/12/12 09:13:40;;;;;;;41.38;18.50;;;;;;;;;;5071761;28;20033;-59
2022/12/12 09:16:07;;;;;;;42.67;18.90;;;;;;;;;;5052661;28;20062;-60
2022/12/12 09:18:33;;;;;;;43.72;18.92;;;;;;;;;;5071916;28;20101;-59
2022/12/12 09:20:59;;;;;;;44.55;19.80;;;;;;;;;;5070510;28;20024;-60
2022/12/12 09:23:25;;;;;;;45.25;20.15;;;;;;;;;;5070817;28;20225;-57
2022/12/12 09:25:52;;;;;;;44.58;20.35;;;;;;;;;;5071320;28;20039;-55
2022/12/12 09:28:19;;;;;;;43.63;19.80;;;;;;;;;;5069731;28;20078;-58
2022/12/12 09:30:45;;;;;;;48.08;20.13;;;;;;;;;;5070255;28;20043;-61
2022/12/12 09:33:11;;;;;;;44.67;19.85;;;;;;;;;;5068042;28;20431;-59
2022/12/12 09:35:36;;;;;;;46.33;20.13;;;;;;;;;;5068738;28;20028;-59
2022/12/12 09:38:02;;;;;;;44.03;20.75;;;;;;;;;;5065467;28;20093;-60
2022/12/12 09:40:41;;;;;;;46.00;21.08;;;;;;;;;;5070565;28;20032;-58
2022/12/12 09:43:14;;;;;;;51.40;22.05;;;;;;;;;;5066487;28;20035;-57
2022/12/12 09:45:41;;;;;;;47.08;20.77;;;;;;;;;;5068013;28;20032;-57
2022/12/12 09:48:07;;;;;;;44.75;19.52;;;;;;;;;;5069535;28;20032;-58
2022/12/12 09:50:37;;;;;;;47.00;20.17;;;;;;;;;;5071135;28;20036;-60
2022/12/12 09:53:12;;;;;;;44.15;20.13;;;;;;;;;;5066393;28;20062;-61
2022/12/12 09:55:56;;;;;;;42.15;19.92;;;;;;;;;;5058803;28;20044;-60
2022/12/12 09:58:27;;;;;;;42.00;20.48;;;;;;;;;;5071485;28;20036;-58
2022/12/12 10:00:59;;;;;;;48.33;21.67;;;;;;;;;;5050057;28;20036;-63
2022/12/12 10:03:50;;;;;;;44.45;20.83;;;;;;;;;;5070670;28;20032;-60
2022/12/12 10:06:16;;;;;;;;;;;;;;;;;;5049968;28;20043;-59
2022/12/12 10:09:06;;;;;;;49.38;20.15;;;;;;;;;;5065677;28;19928;-59
2022/12/12 10:11:49;;;;;;;47.88;20.52;;;;;;;;;;5053663;28;20520;-60
2022/12/12 10:14:33;;;;;;;40.28;19.27;;;;;;;;;;5069295;28;20308;-56
2022/12/12 10:17:02;;;;;;;44.83;20.60;;;;;;;;;;5070806;28;20032;-56
2022/12/12 10:19:34;;;;;;;43.88;19.73;;;;;;;;;;5069182;28;20465;-60
2022/12/12 10:22:18;;;;;;;45.83;20.85;;;;;;;;;;5052377;28;20033;-57
2022/12/12 10:24:52;;;;;;;45.03;19.50;;;;;;;;;;5068826;28;20052;-60
2022/12/12 10:27:17;;;;;;;44.72;20.10;;;;;;;;;;5070594;28;20025;-59
2022/12/12 10:29:47;;;;;;;43.90;21.15;;;;;;;;;;5068194;28;20097;-57
2022/12/12 10:32:15;;;;;;;48.03;20.70;;;;;;;;;;5070285;28;20166;-60
2022/12/12 10:35:14;;;;;;;40.55;18.58;;;;;;;;;;5071074;28;20056;-57
2022/12/12 10:38:01;;;;;;;43.17;19.33;;;;;;;;;;5067718;28;20488;-56
2022/12/12 10:40:32;;;;;;;44.92;19.35;;;;;;;;;;5069443;28;20035;-59
2022/12/12 10:43:09;;;;;;;40.28;18.73;;;;;;;;;;5071977;28;20060;-61
2022/12/12 10:45:43;;;;;;;38.17;19.13;;;;;;;;;;5072294;28;20041;-58
2022/12/12 10:48:09;;;;;;;41.50;18.65;;;;;;;;;;5071036;28;20507;-58
2022/12/12 10:50:50;;;;;;;40.13;19.45;;;;;;;;;;5074757;28;20040;-57
2022/12/12 10:53:15;;;;;;;39.20;18.45;;;;;;;;;;5054483;28;20151;-60
2022/12/12 10:55:52;;;;;;;40.47;18.73;;;;;;;;;;5056769;28;20136;-61
2022/12/12 10:58:18;;;;;;;40.03;19.63;;;;;;;;;;5072553;28;20036;-61
2022/12/12 11:00:46;;;;;;;42.83;19.08;;;;;;;;;;5070465;28;20032;-62
2022/12/12 11:03:12;;;;;;;40.30;19.08;;;;;;;;;;5071859;28;20070;-60
2022/12/12 11:05:39;;;;;;;45.03;20.20;;;;;;;;;;5072816;28;20037;-61
2022/12/12 11:08:25;;;;;;;37.75;18.58;;;;;;;;;;5072729;28;20032;-61
2022/12/12 11:11:26;;;;;;;42.03;18.83;;;;;;;;;;5073468;28;20528;-61
2022/12/12 11:14:02;;;;;;;36.85;18.55;;;;;;;;;;5069202;28;20048;-60
2022/12/12 11:16:42;;;;;;;39.15;18.48;;;;;;;;;;5070973;28;20060;-59
2022/12/12 11:19:19;;;;;;;35.25;17.58;;;;;;;;;;5072743;28;20032;-59
2022/12/12 11:21:45;;;;;;;41.63;17.95;;;;;;;;;;5074703;28;20074;-61
2022/12/12 11:24:19;;;;;;;34.67;17.25;;;;;;;;;;5070926;28;20064;-58
2022/12/12 11:26:59;;;;;;;35.40;17.40;;;;;;;;;;5073240;28;20032;-61
2022/12/12 11:29:30;;;;;;;32.83;17.55;;;;;;;;;;5072257;28;20040;-59
2022/12/12 11:31:56;;;;;;;;;;;;;;;;;;5057624;28;20048;-56
2022/12/12 11:34:25;;;;;;;36.40;16.08;;;;;;;;;;5072253;28;19918;-57
2022/12/12 11:36:51;;;;;;;35.53;16.38;;;;;;;;;;5074215;28;20504;-58
2022/12/12 11:39:22;;;;;;;32.75;16.75;;;;;;;;;;5071898;28;20036;-58
2022/12/12 11:41:58;;;;;;;34.20;15.57;;;;;;;;;;5066856;28;20035;-57
2022/12/12 11:44:26;;;;;;;34.97;15.35;;;;;;;;;;5072935;28;20094;-60
2022/12/12 11:46:52;;;;;;;33.10;14.90;;;;;;;;;;5073907;28;20712;-60
2022/12/12 11:49:19;;;;;;;29.45;15.00;;;;;;;;;;5070776;28;20090;-61
2022/12/12 11:51:45;;;;;;;32.28;16.38;;;;;;;;;;5066893;28;20029;-60
2022/12/12 11:54:13;;;;;;;30.33;15.85;;;;;;;;;;5072419;28;20111;-58
2022/12/12 11:56:46;;;;;;;26.90;15.30;;;;;;;;;;5073932;28;20060;-57
2022/12/12 11:59:21;;;;;;;26.23;15.07;;;;;;;;;;5071482;28;20040;-59
2022/12/12 12:02:04;;;;;;;28.17;15.77;;;;;;;;;;5071010;28;20033;-55
2022/12/12 12:04:46;;;;;;;27.67;15.38;;;;;;;;;;5069548;28;20048;-58
2022/12/12 12:07:40;;;;;;;28.77;15.65;;;;;;;;;;5069274;28;20028;-56
2022/12/12 12:10:21;;;;;;;26.70;15.10;;;;;;;;;;5072727;28;20115;-59
2022/12/12 12:12:58;;;;;;;27.07;14.57;;;;;;;;;;5071847;28;20130;-56
2022/12/12 12:15:41;;;;;;;27.52;15.00;;;;;;;;;;5053563;28;20039;-61
2022/12/12 12:18:27;;;;;;;25.05;13.80;;;;;;;;;;5071761;28;20044;-60
2022/12/12 12:21:35;;;;;;;24.98;13.68;;;;;;;;;;5072679;28;20412;-60
2022/12/12 12:24:09;;;;;;;23.48;13.40;;;;;;;;;;5025971;28;20047;-60
2022/12/12 12:27:00;;;;;;;23.85;13.00;;;;;;;;;;5068873;28;20024;-58
2022/12/12 12:29:49;;;;;;;;;;;;;;;;;;5071993;28;20028;-59
2022/12/12 12:32:33;;;;;;;22.90;12.70;;;;;;;;;;5052948;28;19959;-60
2022/12/12 12:35:20;;;;;;;23.45;13.18;;;;;;;;;;5055175;28;20085;-59
2022/12/12 12:38:19;;;;;;;26.25;14.18;;;;;;;;;;5073130;28;20033;-59
2022/12/12 12:41:09;;;;;;;28.95;15.82;;;;;;;;;;5067177;28;20053;-59
2022/12/12 12:43:46;;;;;;;30.80;15.95;;;;;;;;;;5052380;28;20397;-60
2022/12/12 12:46:54;;;;;;;27.73;14.57;;;;;;;;;;5087248;28;20035;-60
2022/12/12 12:49:32;;;;;;;26.95;15.13;;;;;;;;;;5071174;28;20120;-60
2022/12/12 12:52:36;;;;;;;29.00;15.45;;;;;;;;;;5048013;28;20028;-60
2022/12/12 12:55:10;;;;;;;23.27;13.32;;;;;;;;;;5066701;28;20041;-62
2022/12/12 12:57:41;;;;;;;28.55;14.25;;;;;;;;;;5072668;28;20108;-60
2022/12/12 13:00:18;;;;;;;28.05;13.25;;;;;;;;;;5065776;28;21280;-61
2022/12/12 13:03:01;;;;;;;27.15;13.15;;;;;;;;;;5072107;28;20041;-59
2022/12/12 13:05:42;;;;;;;24.38;12.75;;;;;;;;;;5070019;28;20384;-59
2022/12/12 13:08:31;;;;;;;24.58;13.20;;;;;;;;;;5070748;28;20491;-62
2022/12/12 13:11:09;;;;;;;24.02;12.98;;;;;;;;;;5072098;28;20048;-59
2022/12/12 13:13:39;;;;;;;21.98;12.63;;;;;;;;;;5069875;28;20362;-57
2022/12/12 13:16:14;;;;;;;36.78;17.25;;;;;;;;;;5067181;28;20027;-62
2022/12/12 13:18:41;;;;;;;23.48;12.00;;;;;;;;;;5068138;28;20029;-60
2022/12/12 13:21:15;;;;;;;22.35;12.27;;;;;;;;;;5053246;28;20041;-59
2022/12/12 13:23:53;;;;;;;20.92;11.77;;;;;;;;;;5071061;28;20082;-57
2022/12/12 13:26:37;;;;;;;25.17;12.52;;;;;;;;;;5062733;28;20381;-56
2022/12/12 13:29:15;;;;;;;23.63;12.63;;;;;;;;;;5071615;28;20032;-63
2022/12/12 13:31:58;;;;;;;22.35;12.07;;;;;;;;;;5070404;28;20469;-58
2022/12/12 13:34:26;;;;;;;23.55;11.85;;;;;;;;;;5071067;28;20213;-56
2022/12/12 13:36:52;;;;;;;25.33;12.25;;;;;;;;;;5070315;28;20070;-56
2022/12/12 13:39:31;;;;;;;22.00;11.82;;;;;;;;;;5070987;28;20036;-61
2022/12/12 13:42:08;;;;;;;21.83;12.15;;;;;;;;;;5054235;28;20029;-59
2022/12/12 13:44:46;;;;;;;21.35;11.30;;;;;;;;;;5070642;28;20481;-60
2022/12/12 13:47:20;;;;;;;23.27;11.68;;;;;;;;;;5068397;28;20029;-59
2022/12/12 13:49:55;;;;;;;22.65;11.85;;;;;;;;;;5071474;28;20103;-59
2022/12/12 13:52:30;;;;;;;21.08;12.00;;;;;;;;;;5069302;28;20075;-58
2022/12/12 13:55:10;;;;;;;24.30;13.25;;;;;;;;;;5069798;28;20067;-59
2022/12/12 13:57:58;;;;;;;21.60;12.00;;;;;;;;;;5070435;28;20040;-58
2022/12/12 14:00:26;;;;;;;22.13;12.52;;;;;;;;;;5069158;28;20052;-59
2022/12/12 14:03:27;;;;;;;23.30;11.70;;;;;;;;;;5071309;28;20040;-61
2022/12/12 14:05:53;;;;;;;22.15;11.90;;;;;;;;;;5069171;28;20041;-58
2022/12/12 14:08:21;;;;;;;21.35;11.30;;;;;;;;;;5066521;28;20036;-59
2022/12/12 14:10:53;;;;;;;23.67;12.32;;;;;;;;;;5071372;28;20457;-56
2022/12/12 14:13:21;;;;;;;20.77;11.57;;;;;;;;;;5060902;28;20499;-59
2022/12/12 14:16:13;;;;;;;24.70;11.50;;;;;;;;;;5067345;28;20118;-61
2022/12/12 14:18:50;;;;;;;24.40;11.50;;;;;;;;;;5063017;28;20032;-58
2022/12/12 14:21:34;;;;;;;21.60;11.18;;;;;;;;;;5070347;28;20033;-59
2022/12/12 14:24:31;;;;;;;25.48;11.32;;;;;;;;;;5052335;28;20452;-59
2022/12/12 14:27:04;;;;;;;23.88;11.80;;;;;;;;;;5068007;28;20104;-59
2022/12/12 14:29:32;;;;;;;22.48;12.35;;;;;;;;;;5066545;28;20487;-54
2022/12/12 14:32:09;;;;;;;22.98;11.65;;;;;;;;;;5071245;28;20062;-61
2022/12/12 14:34:50;;;;;;;21.92;12.18;;;;;;;;;;5067154;28;20067;-59
2022/12/12 14:37:21;;;;;;;21.45;11.48;;;;;;;;;;5053615;28;20040;-58
2022/12/12 14:40:10;;;;;;;21.75;11.45;;;;;;;;;;5071270;28;20028;-58
2022/12/12 14:42:57;;;;;;;19.23;10.40;;;;;;;;;;5056085;28;20040;-58
2022/12/12 14:45:31;;;;;;;20.88;11.45;;;;;;;;;;5069994;28;20484;-59
2022/12/12 14:48:22;;;;;;;23.50;11.43;;;;;;;;;;5069396;28;20036;-58
2022/12/12 14:50:50;;;;;;;22.13;12.38;;;;;;;;;;5071053;28;20028;-59
2022/12/12 14:53:24;;;;;;;22.55;12.23;;;;;;;;;;5049912;28;20085;-60
2022/12/12 14:55:59;;;;;;;21.90;12.35;;;;;;;;;;5049612;28;20053;-59
2022/12/12 14:58:29;;;;;;;25.10;12.65;;;;;;;;;;5047691;28;20960;-60
2022/12/12 15:00:58;;;;;;;23.42;11.88;;;;;;;;;;5048597;28;20032;-55
2022/12/12 15:03:30;;;;;;;22.95;10.68;;;;;;;;;;5049716;28;20167;-58